createdAt,value
2023-11-30T00:00:07.542Z,18.68
2023-11-30T00:02:34.149Z,16.85
2023-11-30T00:05:00.702Z,18.81
2023-11-30T00:07:27.265Z,17.12
2023-11-30T00:09:53.871Z,17.80
2023-11-30T00:12:20.497Z,18.68
2023-11-30T00:14:47.078Z,17.47
2023-11-30T00:17:13.622Z,19.32
2023-11-30T00:19:40.147Z,19.13
2023-11-30T00:22:06.754Z,18.54
2023-11-30T00:24:33.345Z,18.05
2023-11-30T00:26:59.909Z,18.16
2023-11-30T00:29:26.470Z,17.07
2023-11-30T00:31:53.042Z,16.79
2023-11-30T00:34:19.602Z,18.47
2023-11-30T00:36:46.125Z,18.08
2023-11-30T00:39:12.704Z,16.96
2023-11-30T00:41:39.571Z,16.54
2023-11-30T00:44:06.093Z,15.64
2023-11-30T00:46:32.689Z,15.99
2023-11-30T00:48:59.275Z,15.66
2023-11-30T00:51:25.918Z,15.57
2023-11-30T00:53:52.602Z,15.63
2023-11-30T00:56:19.135Z,16.27
2023-11-30T00:58:45.626Z,16.99
2023-11-30T01:01:12.106Z,17.77
2023-11-30T01:03:38.781Z,15.80
2023-11-30T01:06:05.658Z,15.16
2023-11-30T01:08:32.347Z,15.50
2023-11-30T01:10:58.996Z,15.55
2023-11-30T01:13:27.561Z,15.89
2023-11-30T01:15:54.088Z,16.57
2023-11-30T01:18:20.801Z,17.38
2023-11-30T01:20:47.582Z,17.23
2023-11-30T01:23:14.417Z,17.76
2023-11-30T01:25:41.010Z,16.33
2023-11-30T01:28:07.608Z,18.02
2023-11-30T01:30:34.121Z,17.22
2023-11-30T01:33:00.820Z,16.62
2023-11-30T01:35:27.395Z,17.21
2023-11-30T01:37:53.913Z,16.76
2023-11-30T01:40:20.416Z,16.94
2023-11-30T01:42:46.964Z,17.11
2023-11-30T01:45:13.619Z,17.95
2023-11-30T01:47:40.457Z,18.48
2023-11-30T01:50:07.411Z,18.83
2023-11-30T01:52:34.455Z,17.82
2023-11-30T01:55:03.109Z,18.98
2023-11-30T01:57:30.512Z,17.32
2023-11-30T01:59:57.316Z,17.41
2023-11-30T02:02:24.304Z,17.59
2023-11-30T02:04:54.036Z,18.28
2023-11-30T02:07:20.691Z,18.54
2023-11-30T02:09:47.377Z,18.95
2023-11-30T02:12:13.994Z,17.26
2023-11-30T02:14:40.513Z,17.80
2023-11-30T02:17:07.042Z,16.85
2023-11-30T02:19:33.579Z,16.91
2023-11-30T02:22:00.196Z,16.49
2023-11-30T02:24:26.848Z,16.57
2023-11-30T02:26:53.544Z,16.69
2023-11-30T02:29:20.131Z,16.77
2023-11-30T02:31:46.834Z,16.93
2023-11-30T02:34:13.533Z,17.26
2023-11-30T02:36:40.011Z,17.10
2023-11-30T02:39:06.769Z,18.38
2023-11-30T02:41:33.319Z,18.17
2023-11-30T02:44:00.413Z,18.07
2023-11-30T02:46:26.991Z,18.14
2023-11-30T02:48:53.675Z,17.73
2023-11-30T02:51:20.324Z,18.25
2023-11-30T02:53:46.897Z,17.58
2023-11-30T02:56:13.426Z,17.62
2023-11-30T02:58:40.012Z,17.53
2023-11-30T03:01:06.620Z,17.55
2023-11-30T03:03:33.368Z,17.69
2023-11-30T03:06:00.080Z,17.81
2023-11-30T03:08:26.636Z,17.36
2023-11-30T03:10:53.441Z,17.31
2023-11-30T03:13:19.933Z,17.28
2023-11-30T03:15:47.732Z,17.26
2023-11-30T03:18:14.647Z,17.49
2023-11-30T03:20:41.328Z,17.60
2023-11-30T03:23:07.944Z,18.10
2023-11-30T03:25:34.519Z,17.24
2023-11-30T03:28:01.070Z,17.03
2023-11-30T03:30:27.879Z,17.11
2023-11-30T03:32:56.645Z,17.04
2023-11-30T03:35:23.216Z,17.43
2023-11-30T03:37:51.285Z,17.53
2023-11-30T03:40:17.791Z,17.40
2023-11-30T03:42:44.290Z,17.03
2023-11-30T03:45:10.923Z,17.74
2023-11-30T03:47:37.614Z,16.23
2023-11-30T03:50:04.376Z,17.35
2023-11-30T03:52:30.953Z,16.00
2023-11-30T03:54:57.491Z,16.90
2023-11-30T03:57:24.112Z,17.28
2023-11-30T03:59:51.130Z,17.10
2023-11-30T04:02:17.975Z,17.08
2023-11-30T04:04:44.686Z,16.16
2023-11-30T04:07:11.329Z,16.62
2023-11-30T04:09:38.202Z,16.64
2023-11-30T04:12:05.257Z,15.87
2023-11-30T04:14:31.797Z,16.19
2023-11-30T04:17:00.782Z,16.40
2023-11-30T04:19:28.987Z,17.55
2023-11-30T04:21:55.491Z,16.47
2023-11-30T04:24:22.091Z,16.91
2023-11-30T04:26:48.739Z,16.39
2023-11-30T04:29:15.253Z,17.29
2023-11-30T04:31:41.838Z,17.72
2023-11-30T04:34:08.340Z,17.09
2023-11-30T04:36:34.914Z,17.32
2023-11-30T04:39:01.540Z,17.95
2023-11-30T04:41:28.064Z,17.49
2023-11-30T04:43:54.561Z,18.35
2023-11-30T04:46:21.085Z,17.35
2023-11-30T04:48:47.800Z,17.26
2023-11-30T04:51:14.434Z,17.38
2023-11-30T04:53:40.984Z,17.43
2023-11-30T04:56:07.990Z,17.13
2023-11-30T04:58:34.545Z,17.06
2023-11-30T05:01:01.065Z,16.79
2023-11-30T05:03:27.735Z,17.92
2023-11-30T05:05:54.483Z,17.12
2023-11-30T05:08:21.036Z,17.24
2023-11-30T05:10:47.516Z,17.26
2023-11-30T05:13:14.091Z,16.84
2023-11-30T05:15:40.799Z,17.00
2023-11-30T05:18:08.040Z,16.62
2023-11-30T05:20:34.672Z,16.95
2023-11-30T05:23:01.337Z,17.51
2023-11-30T05:25:28.584Z,17.22
2023-11-30T05:27:55.232Z,16.78
2023-11-30T05:30:21.790Z,16.94
2023-11-30T05:32:48.306Z,17.79
2023-11-30T05:35:14.867Z,17.70
2023-11-30T05:37:41.432Z,18.91
2023-11-30T05:40:08.689Z,17.12
2023-11-30T05:42:35.276Z,18.06
2023-11-30T05:45:02.186Z,16.93
2023-11-30T05:47:28.741Z,16.82
2023-11-30T05:49:55.416Z,18.12
2023-11-30T05:52:22.021Z,17.01
2023-11-30T05:54:48.566Z,16.94
2023-11-30T05:57:15.612Z,16.78
2023-11-30T05:59:42.378Z,17.09
2023-11-30T06:02:08.970Z,16.81
2023-11-30T06:04:35.724Z,17.60
2023-11-30T06:07:02.278Z,17.57
2023-11-30T06:09:28.885Z,17.44
2023-11-30T06:11:55.484Z,16.88
2023-11-30T06:14:22.121Z,17.46
2023-11-30T06:16:48.767Z,17.17
2023-11-30T06:19:15.379Z,17.31
2023-11-30T06:21:41.889Z,17.23
2023-11-30T06:24:08.431Z,18.49
2023-11-30T06:26:35.044Z,19.05
2023-11-30T06:29:01.647Z,17.86
2023-11-30T06:31:28.181Z,18.55
2023-11-30T06:33:55.162Z,17.90
2023-11-30T06:36:21.722Z,17.78
2023-11-30T06:38:48.351Z,17.33
2023-11-30T06:41:14.960Z,17.64
2023-11-30T06:43:41.689Z,18.49
2023-11-30T06:46:08.488Z,19.30
2023-11-30T06:48:35.203Z,18.58
2023-11-30T06:51:01.725Z,18.65
2023-11-30T06:53:28.259Z,17.92
2023-11-30T06:55:54.818Z,17.04
2023-11-30T06:58:21.317Z,17.41
2023-11-30T07:00:47.983Z,17.54
2023-11-30T07:03:14.803Z,17.78
2023-11-30T07:05:41.538Z,17.16
2023-11-30T07:08:08.221Z,17.37
2023-11-30T07:10:34.745Z,18.20
2023-11-30T07:13:01.233Z,17.48
2023-11-30T07:15:27.922Z,17.86
2023-11-30T07:17:54.572Z,17.93
2023-11-30T07:20:21.166Z,19.18
2023-11-30T07:22:47.704Z,18.22
2023-11-30T07:25:14.205Z,17.82
2023-11-30T07:27:40.713Z,17.68
2023-11-30T07:30:10.867Z,18.83
2023-11-30T07:32:37.856Z,19.54
2023-11-30T07:35:05.524Z,18.79
2023-11-30T07:37:32.063Z,17.97
2023-11-30T07:39:58.596Z,17.64
2023-11-30T07:42:29.925Z,17.56
2023-11-30T07:45:02.320Z,18.05
2023-11-30T07:47:29.544Z,17.94
2023-11-30T07:49:56.169Z,18.84
2023-11-30T07:52:22.787Z,17.75
2023-11-30T07:54:49.363Z,17.77
2023-11-30T07:57:15.969Z,17.50
2023-11-30T07:59:42.532Z,17.45
2023-11-30T08:02:09.047Z,17.32
2023-11-30T08:04:37.566Z,17.52
2023-11-30T08:07:04.744Z,17.83
2023-11-30T08:09:31.295Z,18.22
2023-11-30T08:11:57.839Z,17.91
2023-11-30T08:14:24.366Z,18.12
2023-11-30T08:16:50.878Z,18.53
2023-11-30T08:19:17.457Z,18.30
2023-11-30T08:21:43.922Z,18.62
2023-11-30T08:24:10.522Z,18.17
2023-11-30T08:26:37.144Z,18.48
2023-11-30T08:29:04.138Z,18.13
2023-11-30T08:31:30.705Z,18.18
2023-11-30T08:33:57.360Z,18.53
2023-11-30T08:36:24.143Z,18.64
2023-11-30T08:38:50.744Z,18.61
2023-11-30T08:41:17.404Z,18.53
2023-11-30T08:43:43.962Z,18.32
2023-11-30T08:46:10.572Z,18.54
2023-11-30T08:48:37.168Z,19.08
2023-11-30T08:51:03.805Z,18.99
2023-11-30T08:53:30.470Z,18.70
2023-11-30T08:55:57.043Z,18.66
2023-11-30T08:58:23.543Z,18.74
2023-11-30T09:00:50.085Z,18.57
2023-11-30T09:03:16.674Z,18.72
2023-11-30T09:05:43.258Z,18.68
2023-11-30T09:08:09.769Z,19.02
2023-11-30T09:10:36.284Z,19.49
2023-11-30T09:13:02.868Z,19.18
2023-11-30T09:15:32.947Z,18.85
2023-11-30T09:17:59.634Z,18.55
2023-11-30T09:20:26.162Z,20.12
2023-11-30T09:22:52.762Z,19.35
2023-11-30T09:25:19.257Z,21.02
2023-11-30T09:27:46.123Z,20.91
2023-11-30T09:30:13.710Z,19.75
2023-11-30T09:32:40.484Z,19.06
2023-11-30T09:35:07.342Z,21.17
2023-11-30T09:37:34.197Z,20.36
2023-11-30T09:40:01.250Z,20.40
2023-11-30T09:42:29.356Z,19.04
2023-11-30T09:45:00.027Z,19.00
2023-11-30T09:47:27.765Z,19.49
2023-11-30T09:49:55.628Z,19.76
2023-11-30T09:52:22.975Z,20.14
2023-11-30T09:54:50.319Z,19.94
2023-11-30T09:57:17.069Z,19.56
2023-11-30T09:59:43.689Z,20.50
2023-11-30T10:02:11.224Z,19.74
2023-11-30T10:04:40.894Z,19.81
2023-11-30T10:07:08.899Z,20.00
2023-11-30T10:09:35.844Z,19.78
2023-11-30T10:12:02.670Z,20.58
2023-11-30T10:14:29.255Z,21.53
2023-11-30T10:16:56.010Z,21.35
2023-11-30T10:19:23.955Z,21.60
2023-11-30T10:21:51.668Z,21.53
2023-11-30T10:24:19.003Z,21.51
2023-11-30T10:26:52.149Z,20.90
2023-11-30T10:29:24.875Z,20.58
2023-11-30T10:31:55.345Z,20.87
2023-11-30T10:34:28.938Z,21.08
2023-11-30T10:36:58.500Z,21.34
2023-11-30T10:39:29.138Z,21.01
2023-11-30T10:41:56.864Z,20.88
2023-11-30T10:44:28.108Z,21.15
2023-11-30T10:46:56.937Z,20.72
2023-11-30T10:49:25.559Z,20.44
2023-11-30T10:51:57.239Z,20.49
2023-11-30T10:54:52.818Z,20.64
2023-11-30T10:57:21.060Z,21.04
2023-11-30T10:59:48.624Z,21.00
2023-11-30T11:02:15.867Z,20.42
2023-11-30T11:04:44.505Z,20.68
2023-11-30T11:07:16.591Z,20.63
2023-11-30T11:09:55.095Z,21.34
2023-11-30T11:12:26.969Z,20.88
2023-11-30T11:15:06.784Z,21.34
2023-11-30T11:17:34.393Z,21.43
2023-11-30T11:20:02.251Z,21.21
2023-11-30T11:22:29.488Z,21.50
2023-11-30T11:25:02.948Z,21.36
2023-11-30T11:27:32.181Z,21.70
2023-11-30T11:30:03.066Z,22.00
2023-11-30T11:32:33.570Z,22.02
2023-11-30T11:35:01.783Z,21.65
2023-11-30T11:37:31.035Z,21.66
2023-11-30T11:40:00.699Z,21.75
2023-11-30T11:42:28.210Z,21.88
2023-11-30T11:44:56.068Z,21.99
2023-11-30T11:47:24.061Z,22.21
2023-11-30T11:49:51.316Z,22.14
2023-11-30T11:52:22.994Z,22.10
2023-11-30T11:55:02.768Z,22.05
2023-11-30T11:57:39.100Z,21.84
2023-11-30T12:00:13.553Z,22.23
2023-11-30T12:02:40.385Z,22.63
2023-11-30T12:05:11.597Z,22.26
2023-11-30T12:08:07.355Z,22.03
2023-11-30T12:10:38.186Z,22.01
2023-11-30T12:13:04.696Z,22.02
2023-11-30T12:15:31.295Z,22.91
2023-11-30T12:17:58.090Z,22.03
2023-11-30T12:20:25.787Z,22.54
2023-11-30T12:22:53.271Z,22.64
2023-11-30T12:25:20.889Z,22.59
2023-11-30T12:27:48.451Z,23.19
2023-11-30T12:30:16.760Z,23.08
2023-11-30T12:32:44.471Z,22.97
2023-11-30T12:35:11.385Z,23.06
2023-11-30T12:37:41.097Z,23.29
2023-11-30T12:40:10.000Z,22.89
2023-11-30T12:42:38.331Z,23.19
2023-11-30T12:45:06.418Z,23.61
2023-11-30T12:47:33.610Z,22.92
2023-11-30T12:50:01.177Z,23.16
2023-11-30T12:52:28.814Z,23.08
2023-11-30T12:54:56.458Z,23.26
2023-11-30T12:57:26.357Z,23.40
2023-11-30T12:59:53.642Z,23.33
2023-11-30T13:02:21.030Z,23.17
2023-11-30T13:04:47.776Z,22.98
2023-11-30T13:07:15.142Z,23.00
2023-11-30T13:09:42.248Z,23.09
2023-11-30T13:12:09.834Z,23.04
2023-11-30T13:14:37.073Z,23.78
2023-11-30T13:17:04.191Z,23.34
2023-11-30T13:19:31.647Z,24.24
2023-11-30T13:21:58.974Z,24.01
2023-11-30T13:24:27.028Z,23.66
2023-11-30T13:26:54.736Z,23.48
2023-11-30T13:29:22.416Z,23.30
2023-11-30T13:31:49.926Z,23.57
2023-11-30T13:34:17.366Z,23.36
2023-11-30T13:36:46.096Z,23.51
2023-11-30T13:39:13.209Z,23.54
2023-11-30T13:41:40.152Z,23.36
2023-11-30T13:44:07.276Z,23.70
2023-11-30T13:46:34.434Z,23.08
2023-11-30T13:49:01.617Z,23.57
2023-11-30T13:51:28.538Z,23.77
2023-11-30T13:53:55.696Z,23.46
2023-11-30T13:56:23.068Z,24.00
2023-11-30T13:58:49.813Z,23.67
2023-11-30T14:01:16.917Z,24.29
2023-11-30T14:03:44.434Z,24.00
2023-11-30T14:06:11.306Z,23.51
2023-11-30T14:08:40.176Z,24.76
2023-11-30T14:11:08.215Z,23.76
2023-11-30T14:13:35.672Z,24.62
2023-11-30T14:16:03.148Z,24.17
2023-11-30T14:18:29.878Z,24.73
2023-11-30T14:20:56.641Z,24.17
2023-11-30T14:23:24.228Z,23.64
2023-11-30T14:25:50.899Z,23.36
2023-11-30T14:28:18.749Z,23.64
2023-11-30T14:30:47.531Z,23.45
2023-11-30T14:33:15.238Z,23.33
2023-11-30T14:35:42.681Z,23.77
2023-11-30T14:38:10.245Z,23.60
2023-11-30T14:40:38.237Z,23.78
2023-11-30T14:43:05.799Z,24.44
2023-11-30T14:45:33.080Z,24.86
2023-11-30T14:47:59.885Z,24.21
2023-11-30T14:50:27.142Z,24.36
2023-11-30T14:52:55.283Z,24.08
2023-11-30T14:55:22.752Z,24.33
2023-11-30T14:57:50.648Z,24.99
2023-11-30T15:00:18.580Z,25.03
2023-11-30T15:02:47.201Z,24.36
2023-11-30T15:05:14.922Z,24.54
2023-11-30T15:07:42.871Z,25.14
2023-11-30T15:10:10.625Z,24.85
2023-11-30T15:12:38.526Z,25.29
2023-11-30T15:15:06.527Z,24.50
2023-11-30T15:17:34.645Z,24.32
2023-11-30T15:20:02.489Z,24.61
2023-11-30T15:22:29.962Z,23.78
2023-11-30T15:24:57.387Z,23.66
2023-11-30T15:27:24.799Z,24.39
2023-11-30T15:29:52.023Z,23.28
2023-11-30T15:32:19.554Z,23.32
2023-11-30T15:34:48.025Z,23.30
2023-11-30T15:37:15.813Z,24.17
2023-11-30T15:39:45.688Z,23.93
2023-11-30T15:42:13.027Z,23.62
2023-11-30T15:44:42.457Z,23.99
2023-11-30T15:47:09.830Z,24.02
2023-11-30T15:49:37.425Z,24.46
2023-11-30T15:52:04.262Z,24.22
2023-11-30T15:54:31.524Z,23.93
2023-11-30T15:56:58.212Z,24.63
2023-11-30T15:59:24.937Z,24.32
2023-11-30T16:01:52.327Z,23.71
2023-11-30T16:04:19.063Z,23.38
2023-11-30T16:06:48.009Z,23.17
2023-11-30T16:09:15.286Z,24.09
2023-11-30T16:11:41.846Z,23.72
2023-11-30T16:14:08.479Z,22.92
2023-11-30T16:16:35.187Z,22.93
2023-11-30T16:19:01.802Z,22.97
2023-11-30T16:21:28.875Z,22.98
2023-11-30T16:23:55.532Z,22.74
2023-11-30T16:26:23.635Z,22.96
2023-11-30T16:28:50.308Z,23.11
2023-11-30T16:31:17.030Z,23.19
2023-11-30T16:33:44.007Z,22.68
2023-11-30T16:36:11.019Z,22.82
2023-11-30T16:38:38.054Z,23.10
2023-11-30T16:41:04.922Z,22.42
2023-11-30T16:43:31.522Z,23.02
2023-11-30T16:45:58.248Z,22.69
2023-11-30T16:48:24.845Z,23.12
2023-11-30T16:50:51.471Z,23.36
2023-11-30T16:53:18.027Z,23.39
2023-11-30T16:55:44.658Z,23.93
2023-11-30T16:58:11.238Z,23.22
2023-11-30T17:00:37.785Z,23.48
2023-11-30T17:03:04.510Z,23.77
2023-11-30T17:05:31.248Z,24.44
2023-11-30T17:07:57.938Z,23.80
2023-11-30T17:10:24.500Z,23.27
2023-11-30T17:12:51.187Z,23.35
2023-11-30T17:15:17.752Z,23.10
2023-11-30T17:17:44.660Z,22.68
2023-11-30T17:20:12.026Z,23.46
2023-11-30T17:22:38.554Z,23.33
2023-11-30T17:25:05.466Z,23.08
2023-11-30T17:27:32.173Z,22.64
2023-11-30T17:29:58.669Z,22.95
2023-11-30T17:32:25.325Z,23.45
2023-11-30T17:34:52.181Z,23.51
2023-11-30T17:37:18.848Z,22.82
2023-11-30T17:39:45.454Z,23.23
2023-11-30T17:42:12.077Z,23.15
2023-11-30T17:44:38.637Z,23.22
2023-11-30T17:47:05.296Z,23.01
2023-11-30T17:49:31.933Z,23.04
2023-11-30T17:51:59.087Z,23.17
2023-11-30T17:54:25.676Z,23.40
2023-11-30T17:56:52.280Z,22.92
2023-11-30T17:59:18.791Z,23.01
2023-11-30T18:01:45.350Z,22.82
2023-11-30T18:04:11.974Z,23.34
2023-11-30T18:06:38.504Z,22.99
2023-11-30T18:09:05.044Z,22.63
2023-11-30T18:11:31.523Z,22.78
2023-11-30T18:13:58.016Z,23.05
2023-11-30T18:16:24.565Z,22.69
2023-11-30T18:18:51.223Z,22.96
2023-11-30T18:21:17.868Z,22.76
2023-11-30T18:23:44.548Z,22.73
2023-11-30T18:26:11.064Z,23.22
2023-11-30T18:28:37.655Z,23.15
2023-11-30T18:31:12.107Z,23.39
2023-11-30T18:33:46.866Z,23.71
2023-11-30T18:36:13.732Z,23.57
2023-11-30T18:38:50.126Z,23.75
2023-11-30T18:41:21.593Z,23.65
2023-11-30T18:43:49.793Z,23.26
2023-11-30T18:46:16.647Z,23.35
2023-11-30T18:48:43.498Z,23.11
2023-11-30T18:51:11.350Z,23.04
2023-11-30T18:53:38.052Z,23.06
2023-11-30T18:56:05.141Z,23.06
2023-11-30T21:39:59.554Z,-141.91
2023-11-30T21:54:42.609Z,-141.91
2023-11-30T22:06:56.210Z,-141.91
2023-11-30T22:24:03.686Z,-141.91
2023-11-30T22:26:30.291Z,-141.91
2023-11-30T22:28:57.050Z,-141.91
2023-11-30T22:33:50.205Z,-141.91
2023-11-30T22:36:16.760Z,-141.91
2023-11-30T22:43:39.656Z,-141.91
2023-11-30T22:46:06.518Z,-141.91
2023-11-30T22:53:29.374Z,-141.91
2023-11-30T22:58:22.717Z,22.77
2023-11-30T23:00:49.421Z,-141.91
2023-11-30T23:05:42.824Z,-141.91
2023-11-30T23:13:02.430Z,-141.91
2023-11-30T23:17:55.612Z,-141.91
2023-11-30T23:22:48.584Z,-141.91
2023-11-30T23:25:15.219Z,22.77
2023-11-30T23:32:34.991Z,-141.91
2023-11-30T23:37:27.923Z,-141.91
2023-11-30T23:42:20.964Z,-141.91
2023-11-30T23:47:14.022Z,-141.91
